Main page
METAR-TAF:

METAR-TAF

Airports :

Sabadell Airport

Sabadell, Spain

latitude: 41-31N, longitude: 002-06E, elevation: 250 m

Current weather observation

The report was made 32 minutes ago, at 14:00 UTC
Wind 8 kt from the South, varying between East/Southeast and South/Southwest
Temperature 19°C
Humidity 46%
Pressure 1019 hPa
Visibility 10 km or more
no clouds below 1500 m and no cumulonimbus

METAR: LELL 041400Z AUTO 18008KT 120V210 CAVOK 19/07 Q1019

Time: 16:32 (14:32 UTC)

Forecast

The report was made 2 hours and 35 minutes ago, at 11:57 UTC
Forecast valid from 04 at 11 UTC to 05 at 09 UTC
Wind 10 kt from the South
Visibility 10 km or more
Few clouds at a height of 3000 ft
Temporary
from 04 at 12 UTC to 04 at 14 UTC
Wind 8 kt from the East/Southeast
Becoming
from 04 at 18 UTC to 04 at 20 UTC
Wind 3 kt from variable directions

TAF: LELL 041157Z 0411/0509 19010KT 9999 FEW030 TX18/0413Z TN05/0506Z TEMPO 0412/0414 12008KT BECMG 0418/0420 VRB03KT

Weather observations and forecasts of more than 4000 airports (METAR and TAF reports).

The available stations are represented by yellow and red dots on the map.

Hover mouse over dot to see the name of the station.

Then click to see weather observations and forecasts.

To change the map : click on the green buttons with a black cross to zoom in, on the green button with a dash to zoom out, or on the green arrows for adjacent maps.


METAR-TAF: